ADDS METAR Data INFO
IDs: Format: Raw Decoded Include TAF

Data at: 0311 UTC 20 Jul 2018

KANW 200255Z AUTO 13005KT 10SM CLR 21/18 A2992 RMK AO2 T02070181
KANW 200235Z AUTO 09004KT 10SM CLR 21/18 A2992 RMK AO2 T02120180
KANW 200215Z AUTO 08003KT 10SM CLR 22/18 A2992 RMK AO2 T02240182
KANW 200155Z AUTO 08004KT 10SM CLR 23/19 A2992 RMK AO2 T02340185
KANW 200140Z AUTO 08004KT 10SM CLR 24/18 A2992 RMK AO2 T02440184
KANW 200115Z AUTO 04003KT 10SM CLR 27/18 A2991 RMK AO2 T02650183
KANW 200055Z AUTO 02003KT 10SM CLR 27/19 A2991 RMK AO2 T02690187
KANW 200035Z AUTO 36004KT 10SM CLR 27/18 A2991 RMK AO2 T02720183
KANW 200015Z AUTO 35006KT 10SM CLR 28/17 A2991 RMK AO2 T02780172
KANW 192355Z AUTO 36005KT 10SM CLR 28/16 A2991 RMK AO2 T02820163 10300 20279
KANW 192335Z AUTO 36006KT 10SM CLR 29/16 A2991 RMK AO2 T02860160
KANW 192315Z AUTO 36006KT 10SM CLR 29/16 A2991 RMK AO2 T02870164
KANW 192255Z AUTO 35008KT 10SM CLR 29/16 A2992 RMK AO2 T02900164
KANW 192235Z AUTO 01010KT 10SM CLR 29/16 A2992 RMK AO2 T02880160
KANW 192215Z AUTO 36011KT 10SM CLR 29/16 A2992 RMK AO2 T02900161
KANW 192155Z AUTO 02009KT 10SM CLR 29/16 A2992 RMK AO2 T02910160
KANW 192135Z AUTO 35012KT 10SM CLR 29/16 A2992 RMK AO2 T02910156
KANW 192115Z AUTO 01010KT 10SM CLR 29/15 A2992 RMK AO2 T02910154
KANW 192055Z AUTO 36008G14KT 10SM CLR 29/15 A2992 RMK AO2 T02940154
KANW 192035Z AUTO 35011KT 10SM CLR 30/15 A2992 RMK AO2 T02950151
KANW 192015Z AUTO 35005G08KT 10SM CLR 30/14 A2991 RMK AO2 T02970137
KANW 191955Z AUTO 33009KT 10SM CLR 30/13 A2991 RMK AO2 T02950127
KANW 191935Z AUTO 32008KT 10SM CLR 30/12 A2991 RMK AO2 T02950123
KANW 191915Z AUTO 32006KT 10SM CLR 29/14 A2991 RMK AO2 T02900140
KANW 191855Z AUTO 32008KT 10SM CLR 29/14 A2991 RMK AO2 T02900136
KANW 191835Z AUTO 33006KT 10SM CLR 28/14 A2991 RMK AO2 T02840144
KANW 191815Z AUTO 33008KT 10SM CLR 28/13 A2992 RMK AO2 T02830133
KANW 191755Z AUTO 29006KT 10SM CLR 28/15 A2992 RMK AO2 T02770145 10277 20170
KANW 191735Z AUTO 30007KT 10SM CLR 27/15 A2992 RMK AO2 T02710146
KANW 191715Z AUTO 32007KT 10SM CLR 26/15 A2992 RMK AO2 T02600152
KANW 191655Z AUTO 32006KT 10SM CLR 25/15 A2993 RMK AO2 T02520154
KANW 191635Z AUTO 33008KT 10SM CLR 25/16 A2993 RMK AO2 T02460157
KANW 191615Z AUTO 31007KT 10SM CLR 24/15 A2994 RMK AO2 T02390154
KANW 191555Z AUTO 31006KT 10SM CLR 23/16 A2993 RMK AO2 T02340159
KANW 191535Z AUTO 31007KT 10SM CLR 22/16 A2994 RMK AO2 T02220161
KANW 191515Z AUTO 33010KT 10SM CLR 22/17 A2996 RMK AO2 T02160165
KANW 191455Z AUTO 32012G16KT 10SM CLR 21/16 A2996 RMK AO2 T02110163
KANW 191435Z AUTO 32011KT 10SM CLR 21/17 A2997 RMK AO2 T02050165
KANW 191415Z AUTO 31011G16KT 10SM CLR 20/17 A2997 RMK AO2 T02000166
KANW 191355Z AUTO 32014KT 10SM CLR 19/16 A2997 RMK AO2 T01920164
KANW 191335Z AUTO 31013G16KT 10SM CLR 19/17 A2997 RMK AO2 T01900165
KANW 191315Z AUTO 31011G14KT 10SM CLR 19/17 A2996 RMK AO2 T01850167
KANW 191255Z AUTO 30009KT 10SM CLR 18/17 A2997 RMK AO2 T01800166
KANW 191235Z AUTO 30007KT 10SM SCT012 18/17 A2995 RMK AO2 T01770166
KANW 191215Z AUTO 31007KT 10SM CLR 17/16 A2995 RMK AO2 T01730163
KANW 191155Z AUTO 32008KT 10SM CLR 17/16 A2994 RMK AO2 T01700160 10190 20168
KANW 191135Z AUTO 32009KT 10SM CLR 17/16 A2994 RMK AO2 T01710160
KANW 191115Z AUTO 30010KT 10SM CLR 17/16 A2992 RMK AO2 T01730160
KANW 191055Z AUTO 30007KT 10SM CLR 18/16 A2992 RMK AO2 T01760160
KANW 191035Z AUTO 30008KT 10SM CLR 18/16 A2991 RMK AO2 T01770161
KANW 191015Z AUTO 29009KT 10SM CLR 18/16 A2991 RMK AO2 T01770162
KANW 190955Z AUTO 28007KT 10SM CLR 18/16 A2990 RMK AO2 T01770162
KANW 190935Z AUTO 28009KT 10SM CLR 18/16 A2990 RMK AO2 T01820162
KANW 190915Z AUTO 29009KT 10SM CLR 19/16 A2989 RMK AO2 T01850163
KANW 190855Z AUTO 28008KT 10SM CLR 19/17 A2989 RMK AO2 T01870167
KANW 190835Z AUTO 28008KT 10SM CLR 19/17 A2989 RMK AO2 T01900170
KANW 190815Z AUTO 27005KT 10SM CLR 18/17 A2989 RMK AO2 T01810171
KANW 190755Z AUTO 26006KT 10SM CLR 18/17 A2990 RMK AO2 T01820173
KANW 190735Z AUTO 26006KT 10SM CLR 19/18 A2990 RMK AO2 T01850175
KANW 190715Z AUTO 25007KT 10SM CLR 18/18 A2990 RMK AO2 T01820175
KANW 190655Z AUTO 26006KT 10SM CLR 18/18 A2990 RMK AO2 T01830175
KANW 190635Z AUTO 25005KT 10SM CLR 18/18 A2990 RMK AO2 T01820176
KANW 190615Z AUTO 24006KT 10SM CLR 18/18 A2990 RMK AO2 T01830178
KANW 190555Z AUTO 23003KT 10SM CLR 18/18 A2990 RMK AO2 T01820179 10220 20171 402920171
KANW 190535Z AUTO 21003KT 10SM CLR 18/18 A2990 RMK AO2 T01820177
KANW 190515Z AUTO 20005KT 10SM CLR 17/17 A2990 RMK AO2 T01710170
KANW 190500Z AUTO 20005KT 10SM CLR 18/17 A2990 RMK AO2 T01750172
KANW 190435Z AUTO 19004KT 10SM CLR 18/18 A2991 RMK AO2 T01790175
KANW 190415Z AUTO 00000KT 10SM CLR 19/18 A2991 RMK AO2 T01870180
KANW 190355Z AUTO 36003KT 10SM CLR 19/18 A2992 RMK AO2 T01940182
KANW 190335Z AUTO 12004KT 10SM CLR 20/18 A2990 RMK AO2 LTG DSNT E T01970183
KANW 190315Z AUTO 19007KT 10SM CLR 20/18 A2989 RMK AO2 LTG DSNT E T02000180
KANW 190255Z AUTO 18009KT 10SM CLR 21/18 A2988 RMK AO2 T02090180
KANW 190235Z AUTO 18009KT 10SM CLR 21/18 A2987 RMK AO2 LTG DSNT SE T02100180
KANW 190215Z AUTO 19006KT 10SM SCT090 21/18 A2987 RMK AO2 LTG DSNT NE T02120183
KANW 190155Z AUTO 15010KT 10SM BKN090 22/18 A2986 RMK AO2 LTG DSNT E T02180181
KANW 190135Z AUTO 14009KT 10SM SCT090 22/18 A2987 RMK AO2 T02170181
KANW 190115Z AUTO 13010KT 10SM CLR 22/19 A2987 RMK AO2 LTG DSNT E T02180186
KANW 190055Z AUTO 13011KT 10SM CLR 22/19 A2988 RMK AO2 LTG DSNT N AND SE T02200187
KANW 190035Z AUTO 11012KT 10SM CLR 22/17 A2988 RMK AO2 LTG DSNT N AND SE T02190172
KANW 190015Z AUTO 11014G17KT 10SM SCT060 SCT090 SCT110 21/18 A2988 RMK AO2 LTG DSNT NE THRU SE T02080175
KANW 182355Z AUTO 07016G31KT 10SM SCT032 BKN060 OVC080 21/17 A2991 RMK AO2 LTG DSNT NE THRU SE T02100173 10292 20210
KANW 182335Z AUTO 05010G24KT 10SM VCTS SCT030 BKN065 OVC085 23/16 A2992 RMK AO2 LTG DSNT N THRU SE T02310157
KANW 182315Z AUTO 16009KT 10SM SCT055 BKN075 BKN085 26/17 A2988 RMK AO2 LTG DSNT N THRU SE T02600167
KANW 182255Z AUTO 16009KT 10SM SCT048 BKN065 BKN110 26/17 A2990 RMK AO2 LTG DSNT N AND SE T02590173
KANW 182235Z AUTO 16012KT 10SM SCT048 SCT065 27/18 A2990 RMK AO2 LTG DSNT NW THRU SE T02690176
KANW 182215Z AUTO 18014KT 10SM VCTS SCT050 28/19 A2990 RMK AO2 LTG DSNT S AND NW T02840190
KANW 182155Z AUTO 18013G16KT 10SM SCT044 BKN050 29/19 A2991 RMK AO2 T02900188
KANW 182135Z AUTO 18007KT 10SM SCT044 SCT050 SCT065 28/18 A2993 RMK AO2 LTG DSNT NE T02800181
KANW 182115Z AUTO 19009KT 10SM SCT044 28/18 A2994 RMK AO2 LTG DSNT NE AND SW T02840180
KANW 182055Z AUTO 21009G14KT 10SM SCT046 SCT075 SCT085 29/18 A2995 RMK AO2 T02860179
KANW 182035Z AUTO 17008KT 10SM SCT055 SCT075 BKN095 29/18 A2996 RMK AO2 T02850182
KANW 182015Z AUTO 19007KT 10SM SCT041 SCT055 BKN080 28/18 A2997 RMK AO2 T02810178
KANW 181955Z AUTO 22008KT 10SM SCT043 BKN055 BKN080 28/18 A2998 RMK AO2 LTG DSNT NE T02750179
KANW 181935Z AUTO 22006KT 10SM SCT043 27/17 A2999 RMK AO2 T02740168
KANW 181915Z AUTO 22008KT 10SM SCT039 BKN090 27/18 A2999 RMK AO2 T02700176
KANW 181855Z AUTO 22003KT 10SM BKN090 27/17 A2999 RMK AO2 T02650166
KANW 181835Z AUTO 20007KT 10SM OVC090 26/17 A3001 RMK AO2 LTG DSNT NE T02630168
KANW 181815Z AUTO 23005KT 10SM BKN080 26/17 A3001 RMK AO2 T02560166
KANW 181755Z AUTO 22008KT 10SM SCT035 26/17 A3002 RMK AO2 T02600167 10261 20192
KANW 181735Z AUTO 22005KT 10SM BKN034 BKN041 26/17 A3003 RMK AO2 T02590169
KANW 181715Z AUTO 19006G09KT 10SM SCT034 BKN080 25/17 A3003 RMK AO2 T02510171
KANW 181655Z AUTO 20006KT 160V240 10SM SCT080 BKN090 BKN120 25/17 A3003 RMK AO2 T02530171
KANW 181635Z AUTO 22008KT 10SM BKN065 BKN085 25/17 A3004 RMK AO2 T02470165
KANW 181615Z AUTO 20005KT 10SM OVC065 23/16 A3005 RMK AO2 T02310156
KANW 181555Z AUTO 21004KT 10SM OVC065 23/16 A3005 RMK AO2 T02320157
KANW 181535Z AUTO 23005KT 10SM OVC065 24/15 A3005 RMK AO2 T02360154
KANW 181515Z AUTO 27004KT 10SM SCT065 24/15 A3005 RMK AO2 LTG DSNT N T02400154